Time;durP1;ratioP1;P1;durP2;ratioP2;P2;SDS_P1;SDS_P2;PMS_P1;PMS_P2;Temp;Humidity;BMP_temperature;BMP_pressure;BME280_temperature;BME280_humidity;BME280_pressure;Samples;Min_cycle;Max_cycle;Signal;HPM_P1;HPM_P2
2023/05/21 00:00:55;;;;;;;6.77;2.50;;;;;;;10.65;100.00;101691.03;7392408;19;20836;-43
2023/05/21 00:03:26;;;;;;;7.10;2.23;;;;;;;10.68;100.00;101683.47;7397944;19;20492;-47
2023/05/21 00:05:56;;;;;;;9.40;3.30;;;;;;;10.67;100.00;101676.53;7393727;19;21145;-45
2023/05/21 00:08:26;;;;;;;8.50;2.77;;;;;;;10.62;100.00;101662.47;7395377;19;20415;-44
2023/05/21 00:10:56;;;;;;;7.77;2.33;;;;;;;10.57;100.00;101658.75;7392210;19;20462;-46
2023/05/21 00:13:25;;;;;;;7.63;2.53;;;;;;;10.52;100.00;101666.25;7395055;19;20403;-45
2023/05/21 00:15:57;;;;;;;6.57;2.60;;;;;;;10.43;100.00;101671.75;7394398;19;20988;-43
2023/05/21 00:18:27;;;;;;;7.23;2.63;;;;;;;10.44;100.00;101680.38;7397617;19;20406;-48
2023/05/21 00:20:57;;;;;;;10.67;2.20;;;;;;;10.38;100.00;101686.97;7392709;19;20552;-45
2023/05/21 00:23:26;;;;;;;6.07;2.17;;;;;;;10.37;100.00;101694.59;7397238;19;20489;-50
2023/05/21 00:25:56;;;;;;;10.90;3.00;;;;;;;10.34;100.00;101692.72;7393360;19;20469;-45
2023/05/21 00:28:25;;;;;;;7.10;2.60;;;;;;;10.28;100.00;101694.94;7394588;19;20407;-44
2023/05/21 00:30:57;;;;;;;11.67;2.30;;;;;;;10.24;100.00;101711.03;7392573;19;20874;-43
2023/05/21 00:33:27;;;;;;;6.83;1.97;;;;;;;10.22;100.00;101713.56;7394971;19;20417;-44
2023/05/21 00:35:57;;;;;;;6.97;2.90;;;;;;;10.16;100.00;101722.59;7393754;19;20455;-44
2023/05/21 00:38:27;;;;;;;7.67;1.97;;;;;;;10.17;100.00;101734.69;7394379;19;20990;-43
2023/05/21 00:40:56;;;;;;;6.20;2.17;;;;;;;10.12;100.00;101743.03;7392068;19;20453;-43
2023/05/21 00:43:26;;;;;;;7.33;2.53;;;;;;;10.11;100.00;101746.41;7394377;19;20489;-47
2023/05/21 00:45:58;;;;;;;5.03;2.20;;;;;;;10.13;100.00;101754.25;7393117;19;20460;-43
2023/05/21 00:48:28;;;;;;;7.20;2.30;;;;;;;10.11;100.00;101750.72;7393214;19;20430;-45
2023/05/21 00:50:57;;;;;;;10.40;2.20;;;;;;;10.11;100.00;101766.19;7391653;19;21046;-44
2023/05/21 00:53:27;;;;;;;6.83;1.77;;;;;;;10.08;100.00;101765.97;7394038;19;20477;-45
2023/05/21 00:55:57;;;;;;;6.50;2.80;;;;;;;10.01;100.00;101775.06;7388460;19;20525;-49
2023/05/21 00:58:26;;;;;;;9.60;2.80;;;;;;;9.97;100.00;101780.81;7394432;19;20408;-48
2023/05/21 01:01:02;;;;;;;6.50;2.30;;;;;;;9.96;100.00;101812.56;7391041;19;20455;-47
2023/05/21 01:03:37;;;;;;;4.57;1.97;;;;;;;9.94;100.00;101827.91;7394001;19;20411;-44
2023/05/21 01:06:07;;;;;;;5.03;2.47;;;;;;;9.95;100.00;101841.72;7394176;19;20830;-44
2023/05/21 01:08:37;;;;;;;7.03;1.90;;;;;;;9.91;100.00;101837.16;7395784;19;20487;-45
2023/05/21 01:11:08;;;;;;;6.90;2.90;;;;;;;9.88;100.00;101850.75;7394413;19;20449;-47
2023/05/21 01:13:41;;;;;;;4.97;2.30;;;;;;;9.84;100.00;101859.97;7394778;19;20844;-45
2023/05/21 01:16:16;;;;;;;8.47;2.60;;;;;;;9.79;100.00;101866.53;7393814;19;21004;-45
2023/05/21 01:18:46;;;;;;;14.40;3.93;;;;;;;9.80;100.00;101883.75;7390599;19;20416;-47
2023/05/21 01:21:16;;;;;;;6.43;2.13;;;;;;;9.77;100.00;101893.00;7391019;19;20457;-45
2023/05/21 01:23:49;;;;;;;8.73;2.47;;;;;;;9.77;100.00;101909.34;7389699;19;20841;-43
2023/05/21 01:26:18;;;;;;;12.10;3.60;;;;;;;9.71;100.00;101914.13;7391672;19;20408;-43
2023/05/21 01:28:48;;;;;;;15.93;4.50;;;;;;;9.70;100.00;101912.34;7391141;19;20419;-44
2023/05/21 01:31:30;;;;;;;7.20;3.00;;;;;;;9.75;100.00;101922.94;7392378;19;20454;-45
2023/05/21 01:34:01;;;;;;;8.30;3.13;;;;;;;9.73;100.00;101921.16;7389946;19;20404;-45
2023/05/21 01:36:34;;;;;;;7.30;2.30;;;;;;;9.70;100.00;101922.66;7392504;19;20959;-44
2023/05/21 01:39:10;;;;;;;8.97;2.53;;;;;;;9.69;100.00;101931.19;7391002;19;20484;-43
2023/05/21 01:41:42;;;;;;;4.93;2.50;;;;;;;9.71;100.00;101934.75;7393164;19;20404;-44
2023/05/21 01:44:12;;;;;;;8.10;3.57;;;;;;;9.69;100.00;101944.94;7389891;19;21268;-43
2023/05/21 01:46:42;;;;;;;11.30;3.50;;;;;;;9.64;100.00;101948.03;7392975;19;20405;-43
2023/05/21 01:49:12;;;;;;;11.40;3.60;;;;;;;9.63;100.00;101951.41;7388522;19;20447;-47
2023/05/21 01:51:42;;;;;;;6.50;2.20;;;;;;;9.65;100.00;101973.88;7393894;19;20497;-44
2023/05/21 01:54:14;;;;;;;6.23;2.20;;;;;;;9.71;100.00;101988.84;7388933;19;20456;-44
2023/05/21 01:56:44;;;;;;;10.73;2.77;;;;;;;9.77;100.00;101991.84;7393998;19;20504;-44
2023/05/21 01:59:16;;;;;;;6.20;2.23;;;;;;;9.78;100.00;101988.47;7388434;19;20538;-45
2023/05/21 02:01:45;;;;;;;6.67;2.30;;;;;;;9.75;100.00;101992.53;7393637;19;20408;-44
2023/05/21 02:04:15;;;;;;;5.50;2.40;;;;;;;9.75;100.00;101990.84;7388656;19;20464;-45
2023/05/21 02:06:44;;;;;;;6.00;2.23;;;;;;;9.80;100.00;102004.03;7392153;19;20479;-43
2023/05/21 02:09:17;;;;;;;8.63;2.33;;;;;;;9.77;100.00;102002.16;7388568;19;20508;-44
2023/05/21 02:11:46;;;;;;;6.57;2.70;;;;;;;9.75;100.00;102003.75;7395419;19;20414;-45
2023/05/21 02:14:16;;;;;;;6.40;2.40;;;;;;;9.79;100.00;102008.28;7389247;19;20435;-45
2023/05/21 02:16:45;;;;;;;5.43;2.30;;;;;;;9.83;100.00;102014.53;7394253;19;20414;-46
2023/05/21 02:19:15;;;;;;;5.83;2.73;;;;;;;9.82;100.00;102021.38;7389000;19;20466;-43
2023/05/21 02:21:45;;;;;;;9.13;2.60;;;;;;;9.89;100.00;102025.22;7393064;19;20424;-45
2023/05/21 02:24:17;;;;;;;5.60;2.40;;;;;;;9.91;100.00;102020.19;7389576;19;20542;-44
2023/05/21 02:26:49;;;;;;;6.70;2.63;;;;;;;9.84;100.00;102013.72;7392339;19;20415;-44
2023/05/21 02:29:18;;;;;;;9.40;2.60;;;;;;;9.83;100.00;102020.59;7389342;19;20440;-46
2023/05/21 02:31:49;;;;;;;10.13;3.10;;;;;;;9.88;100.00;102017.44;7392302;19;20496;-46
2023/05/21 02:34:20;;;;;;;7.23;2.77;;;;;;;9.76;100.00;102026.13;7388936;19;20435;-42
2023/05/21 02:36:52;;;;;;;7.90;2.97;;;;;;;9.67;100.00;102033.25;7392351;19;20404;-42
2023/05/21 02:39:24;;;;;;;6.40;3.20;;;;;;;9.62;100.00;102047.50;7389586;19;20471;-45
2023/05/21 02:41:54;;;;;;;6.40;2.80;;;;;;;9.59;100.00;102069.72;7393243;19;20471;-44
2023/05/21 02:44:24;;;;;;;10.50;3.20;;;;;;;9.57;100.00;102068.72;7390059;19;20422;-44
2023/05/21 02:46:54;;;;;;;6.83;2.90;;;;;;;9.56;100.00;102078.94;7392441;19;20426;-45
2023/05/21 02:49:23;;;;;;;8.80;2.90;;;;;;;9.50;100.00;102079.41;7388971;19;20879;-43
2023/05/21 02:51:53;;;;;;;8.30;3.43;;;;;;;9.47;100.00;102086.94;7395331;19;20407;-44
2023/05/21 02:54:25;;;;;;;9.43;3.50;;;;;;;9.47;100.00;102084.34;7389265;19;20523;-45
2023/05/21 02:56:55;;;;;;;5.40;2.40;;;;;;;9.40;100.00;102090.78;7391947;19;20426;-45
2023/05/21 02:59:25;;;;;;;8.57;3.33;;;;;;;9.35;100.00;102104.13;7386759;19;20469;-44
2023/05/21 03:01:54;;;;;;;9.43;3.27;;;;;;;9.35;100.00;102104.13;7394073;19;20750;-45
2023/05/21 03:04:27;;;;;;;8.10;2.80;;;;;;;9.34;100.00;102120.38;7385891;19;20991;-45
2023/05/21 03:06:57;;;;;;;7.23;3.13;;;;;;;9.32;100.00;102116.00;7397167;19;20415;-43
2023/05/21 03:09:29;;;;;;;9.33;3.30;;;;;;;9.35;100.00;102124.72;7393523;19;20478;-46
2023/05/21 03:11:59;;;;;;;9.60;3.63;;;;;;;9.34;100.00;102122.94;7398607;19;20410;-48
2023/05/21 03:14:28;;;;;;;6.90;3.03;;;;;;;9.29;100.00;102120.94;7395887;19;20441;-46
2023/05/21 03:16:58;;;;;;;14.57;4.07;;;;;;;9.25;100.00;102118.97;7397229;19;20418;-48
2023/05/21 03:19:29;;;;;;;6.57;3.50;;;;;;;9.25;100.00;102116.38;7394804;19;21006;-47
2023/05/21 03:21:59;;;;;;;9.70;3.40;;;;;;;9.26;100.00;102122.41;7398290;19;20407;-47
2023/05/21 03:24:31;;;;;;;12.07;3.60;;;;;;;9.25;100.00;102134.41;7394160;19;20465;-44
2023/05/21 03:27:05;;;;;;;7.00;3.60;;;;;;;9.23;100.00;102125.66;7397446;19;20408;-47
2023/05/21 03:29:35;;;;;;;9.00;3.40;;;;;;;9.23;100.00;102110.22;7393187;19;20454;-44
2023/05/21 03:32:05;;;;;;;14.67;4.10;;;;;;;9.25;100.00;102102.59;7397550;19;20415;-45
2023/05/21 03:34:36;;;;;;;10.30;3.70;;;;;;;9.29;100.00;102099.47;7393734;19;20467;-44
2023/05/21 03:37:06;;;;;;;22.70;4.20;;;;;;;9.27;100.00;102086.47;7397519;19;20411;-45
2023/05/21 03:39:38;;;;;;;15.37;5.37;;;;;;;9.26;100.00;102074.38;7393447;19;20450;-44
2023/05/21 03:42:07;;;;;;;13.67;4.47;;;;;;;9.27;100.00;102004.06;7398032;19;20479;-45
2023/05/21 03:44:37;;;;;;;12.13;4.27;;;;;;;9.29;100.00;101981.84;7393188;19;20836;-47
2023/05/21 03:47:07;;;;;;;15.53;4.67;;;;;;;9.27;100.00;101957.69;7400201;19;20436;-44
2023/05/21 03:49:36;;;;;;;10.00;4.60;;;;;;;9.27;100.00;101951.63;7392434;19;20450;-46
2023/05/21 03:52:06;;;;;;;11.40;4.23;;;;;;;9.23;100.00;101940.25;7397797;19;20423;-45
2023/05/21 03:54:39;;;;;;;13.00;4.70;;;;;;;9.26;100.00;101922.44;7394992;19;20472;-44
2023/05/21 03:57:08;;;;;;;9.83;4.70;;;;;;;9.25;100.00;101912.03;7397220;19;20432;-43
2023/05/21 03:59:38;;;;;;;12.30;4.90;;;;;;;9.26;100.00;101901.84;7393563;19;20560;-47
2023/05/21 04:02:07;;;;;;;8.40;4.53;;;;;;;9.30;100.00;101884.91;7397076;19;20430;-46
2023/05/21 04:04:37;;;;;;;11.70;5.20;;;;;;;9.27;100.00;101877.88;7394545;19;21015;-45
2023/05/21 04:07:13;;;;;;;8.47;4.10;;;;;;;9.30;100.00;101870.34;7398777;19;20972;-48
2023/05/21 04:09:45;;;;;;;11.00;4.40;;;;;;;9.32;100.00;101852.41;7392661;19;20803;-44
2023/05/21 04:12:16;;;;;;;10.53;4.73;;;;;;;9.35;100.00;101836.25;7397502;19;20435;-45
2023/05/21 04:14:46;;;;;;;10.20;4.47;;;;;;;9.40;100.00;101829.72;7393410;19;20521;-44
2023/05/21 04:17:17;;;;;;;10.70;4.83;;;;;;;9.46;100.00;101817.22;7394385;19;20830;-47
2023/05/21 04:19:47;;;;;;;10.20;4.53;;;;;;;9.51;100.00;101813.25;7392600;19;20534;-46
2023/05/21 04:22:17;;;;;;;18.40;7.40;;;;;;;9.58;100.00;101807.69;7395447;19;20490;-45
2023/05/21 04:24:49;;;;;;;19.20;5.37;;;;;;;9.59;100.00;101801.75;7392788;19;20440;-44
2023/05/21 04:27:18;;;;;;;12.00;4.90;;;;;;;9.55;100.00;101794.59;7397396;19;20432;-48
2023/05/21 04:29:48;;;;;;;9.83;4.50;;;;;;;9.64;100.00;101793.41;7393263;19;20479;-46
2023/05/21 04:32:19;;;;;;;10.77;5.10;;;;;;;9.64;100.00;101788.25;7394952;19;20819;-44
2023/05/21 04:34:48;;;;;;;14.60;5.47;;;;;;;9.71;100.00;101793.00;7392581;19;20446;-48
2023/05/21 04:37:19;;;;;;;19.00;5.77;;;;;;;9.74;100.00;101782.84;7396508;19;20976;-47
2023/05/21 04:39:52;;;;;;;15.93;4.93;;;;;;;9.78;100.00;101794.25;7392742;19;20447;-48
2023/05/21 04:42:22;;;;;;;13.23;5.07;;;;;;;9.85;100.00;101788.69;7393963;19;20411;-48
2023/05/21 04:44:54;;;;;;;16.00;5.50;;;;;;;9.91;100.00;101783.00;7391645;19;20518;-48
2023/05/21 04:47:23;;;;;;;11.43;5.37;;;;;;;9.97;100.00;101783.38;7394326;19;20424;-46
2023/05/21 04:49:53;;;;;;;15.13;6.00;;;;;;;9.97;100.00;101785.97;7391149;19;20446;-46
2023/05/21 04:52:23;;;;;;;12.60;4.87;;;;;;;9.99;100.00;101789.50;7394124;19;20472;-48
2023/05/21 04:54:56;;;;;;;14.20;4.80;;;;;;;10.03;100.00;101795.75;7391636;19;20873;-46
2023/05/21 04:57:27;;;;;;;10.43;4.73;;;;;;;10.09;100.00;101793.53;7395336;19;20479;-47
2023/05/21 04:59:56;;;;;;;13.40;4.27;;;;;;;10.15;100.00;101793.91;7390741;19;20449;-49
2023/05/21 05:02:26;;;;;;;15.43;5.00;;;;;;;10.20;100.00;101800.25;7394350;19;20472;-46
2023/05/21 05:04:55;;;;;;;11.90;5.10;;;;;;;10.23;100.00;101800.44;7395647;19;20414;-47
2023/05/21 05:07:25;;;;;;;10.20;5.00;;;;;;;10.31;100.00;101810.31;7412478;19;20437;-44
2023/05/21 05:09:57;;;;;;;11.50;5.00;;;;;;;10.37;100.00;101811.56;7404898;19;20443;-44
2023/05/21 05:12:27;;;;;;;18.00;7.60;;;;;;;10.50;100.00;101817.47;7412318;19;20414;-47
2023/05/21 05:14:56;;;;;;;8.83;5.07;;;;;;;10.56;100.00;101822.13;7406624;19;20477;-47
2023/05/21 05:17:26;;;;;;;13.47;4.70;;;;;;;10.61;100.00;101831.91;7400935;19;20829;-45
2023/05/21 05:19:55;;;;;;;8.30;4.40;;;;;;;10.64;100.00;101839.84;7395330;19;20873;-44
2023/05/21 05:22:25;;;;;;;14.50;5.57;;;;;;;10.74;100.00;101850.69;7394747;19;20416;-47
2023/05/21 05:24:57;;;;;;;13.00;5.13;;;;;;;10.78;100.00;101853.53;7392269;19;20521;-44
2023/05/21 05:27:27;;;;;;;12.70;5.70;;;;;;;10.84;100.00;101863.34;7392157;19;20412;-48
2023/05/21 05:29:56;;;;;;;12.40;4.70;;;;;;;10.87;100.00;101871.25;7391900;19;20537;-44
2023/05/21 05:32:26;;;;;;;13.20;5.20;;;;;;;10.95;100.00;101871.72;7394603;19;20482;-46
2023/05/21 05:34:56;;;;;;;10.27;4.50;;;;;;;11.00;100.00;101871.97;7391356;19;21450;-46
2023/05/21 05:37:25;;;;;;;15.83;5.40;;;;;;;11.05;100.00;101875.72;7392930;19;20415;-48
2023/05/21 05:39:57;;;;;;;10.00;4.97;;;;;;;11.12;100.00;101883.00;7390630;19;20512;-46
2023/05/21 05:42:27;;;;;;;10.80;5.40;;;;;;;11.16;100.00;101890.16;7392417;19;20428;-46
2023/05/21 05:44:57;;;;;;;9.80;5.03;;;;;;;11.19;100.00;101884.28;7390716;19;20449;-44
2023/05/21 05:47:26;;;;;;;9.40;4.97;;;;;;;11.24;100.00;101898.34;7392679;19;20407;-47
2023/05/21 05:49:56;;;;;;;9.23;5.10;;;;;;;11.31;100.00;101896.97;7389605;19;20508;-46
2023/05/21 05:52:25;;;;;;;10.80;4.77;;;;;;;11.38;100.00;101901.69;7392731;19;20403;-49
2023/05/21 05:54:58;;;;;;;9.03;4.50;;;;;;;11.45;100.00;101908.97;7389777;19;20449;-47
2023/05/21 05:57:27;;;;;;;12.23;5.00;;;;;;;11.54;100.00;101915.50;7393883;19;20413;-47
2023/05/21 05:59:57;;;;;;;9.30;4.77;;;;;;;11.63;100.00;101923.75;7389363;19;21001;-48
2023/05/21 06:02:26;;;;;;;10.20;4.60;;;;;;;11.68;100.00;101927.50;7394109;19;20504;-48
2023/05/21 06:04:57;;;;;;;11.77;4.90;;;;;;;11.74;100.00;101943.34;7389783;19;20442;-47
2023/05/21 06:07:26;;;;;;;12.40;5.70;;;;;;;11.80;100.00;101952.25;7391939;19;20494;-45
2023/05/21 06:09:58;;;;;;;12.13;5.13;;;;;;;11.90;100.00;101949.38;7389751;19;20466;-48
2023/05/21 06:12:28;;;;;;;12.60;5.77;;;;;;;11.92;100.00;101952.94;7392158;19;20408;-49
2023/05/21 06:14:58;;;;;;;12.00;5.43;;;;;;;12.01;100.00;101952.56;7389186;19;20451;-45
2023/05/21 06:17:27;;;;;;;9.40;5.10;;;;;;;12.05;100.00;101957.09;7391953;19;20417;-46
2023/05/21 06:19:58;;;;;;;11.40;5.03;;;;;;;12.16;100.00;101962.91;7388921;19;20461;-44
2023/05/21 06:22:27;;;;;;;10.00;5.10;;;;;;;12.27;100.00;101966.06;7391667;19;20442;-50
2023/05/21 06:24:59;;;;;;;8.23;4.83;;;;;;;12.36;100.00;101971.72;7388830;19;20447;-49
2023/05/21 06:27:29;;;;;;;15.30;5.80;;;;;;;12.41;100.00;101987.50;7392617;19;20957;-46
2023/05/21 06:29:59;;;;;;;13.47;4.87;;;;;;;12.54;100.00;101991.63;7388739;19;20529;-47
2023/05/21 06:32:28;;;;;;;12.30;5.20;;;;;;;12.69;100.00;101994.16;7391460;19;20410;-47
2023/05/21 06:34:58;;;;;;;15.30;5.73;;;;;;;12.79;100.00;101996.44;7389764;19;20444;-51
2023/05/21 06:37:27;;;;;;;18.60;5.70;;;;;;;12.90;100.00;102006.44;7390759;19;20396;-46
2023/05/21 06:40:00;;;;;;;11.53;5.97;;;;;;;13.00;100.00;102013.88;7391709;19;20857;-45
2023/05/21 06:42:29;;;;;;;11.43;6.20;;;;;;;13.16;100.00;102010.38;7398027;19;20424;-49
2023/05/21 06:44:59;;;;;;;17.70;5.37;;;;;;;13.27;100.00;102020.41;7395710;19;20448;-47
2023/05/21 06:47:28;;;;;;;11.70;5.67;;;;;;;13.39;100.00;102020.13;7397635;19;20465;-48
2023/05/21 06:49:58;;;;;;;11.43;6.33;;;;;;;13.53;100.00;102020.88;7395008;19;20464;-45
2023/05/21 06:52:28;;;;;;;11.23;6.43;;;;;;;13.55;100.00;102017.53;7400214;19;20418;-46
2023/05/21 06:55:00;;;;;;;13.50;5.80;;;;;;;13.66;100.00;102028.44;7394997;19;20443;-47
2023/05/21 06:57:30;;;;;;;15.00;6.13;;;;;;;13.80;100.00;102026.53;7400201;19;20403;-45
2023/05/21 07:00:00;;;;;;;10.97;6.07;;;;;;;13.92;100.00;102015.84;7393744;19;20459;-45
2023/05/21 07:02:29;;;;;;;13.53;6.70;;;;;;;14.00;100.00;102005.84;7396505;19;20478;-48
2023/05/21 07:04:59;;;;;;;11.70;6.00;;;;;;;14.05;100.00;102001.72;7395057;19;20516;-44
2023/05/21 07:07:29;;;;;;;15.53;6.20;;;;;;;14.11;100.00;101994.22;7396694;19;20494;-44
2023/05/21 07:10:01;;;;;;;11.07;6.60;;;;;;;14.18;100.00;101993.72;7391448;19;20440;-45
2023/05/21 07:12:30;;;;;;;16.60;6.97;;;;;;;14.31;100.00;101979.59;7396370;19;20414;-44
2023/05/21 07:15:00;;;;;;;14.40;7.33;;;;;;;14.38;100.00;101970.41;7394115;19;21268;-51
2023/05/21 07:17:30;;;;;;;10.50;6.40;;;;;;;14.48;100.00;101960.41;7398426;19;20497;-46
2023/05/21 07:19:59;;;;;;;11.47;6.30;;;;;;;14.55;100.00;101957.25;7393257;19;20455;-49
2023/05/21 07:22:29;;;;;;;12.07;7.77;;;;;;;14.67;100.00;101954.34;7399803;19;20410;-44
2023/05/21 07:25:01;;;;;;;17.90;7.40;;;;;;;14.68;100.00;101943.13;7394294;19;20434;-49
2023/05/21 07:27:31;;;;;;;14.20;8.30;;;;;;;14.68;100.00;101938.78;7399998;19;20419;-45
2023/05/21 07:30:00;;;;;;;13.13;7.40;;;;;;;14.72;100.00;101935.53;7393904;19;20799;-48
2023/05/21 07:32:30;;;;;;;20.63;10.70;;;;;;;14.83;100.00;101923.03;7396365;19;20835;-47
2023/05/21 07:35:02;;;;;;;12.80;6.70;;;;;;;14.98;100.00;101922.78;7394228;19;20443;-44
2023/05/21 07:37:31;;;;;;;13.60;7.77;;;;;;;14.96;100.00;101900.16;7396550;19;20486;-49
2023/05/21 07:40:05;;;;;;;13.17;7.20;;;;;;;15.10;100.00;101895.53;7392572;19;20543;-48
2023/05/21 07:42:34;;;;;;;14.17;7.50;;;;;;;15.22;100.00;101896.03;7396687;19;20432;-45
2023/05/21 07:45:04;;;;;;;11.67;7.20;;;;;;;15.37;100.00;101884.47;7394514;19;20451;-45
2023/05/21 07:47:34;;;;;;;39.37;14.93;;;;;;;15.42;100.00;101879.50;7396196;19;20409;-48
2023/05/21 07:50:03;;;;;;;17.67;8.00;;;;;;;15.49;100.00;101861.56;7393446;19;20488;-45
2023/05/21 07:52:33;;;;;;;22.97;9.83;;;;;;;15.54;100.00;101848.75;7394575;19;20489;-44
2023/05/21 07:55:06;;;;;;;15.03;9.10;;;;;;;15.64;100.00;101824.00;7393449;19;20527;-46
2023/05/21 07:57:35;;;;;;;17.23;8.47;;;;;;;15.64;100.00;101811.84;7396356;19;20752;-44
2023/05/21 08:00:08;;;;;;;14.53;8.23;;;;;;;15.78;100.00;101808.88;7393010;19;20532;-44
2023/05/21 08:02:37;;;;;;;13.43;8.17;;;;;;;15.83;100.00;101806.47;7396071;19;20469;-49
2023/05/21 08:05:09;;;;;;;16.30;9.37;;;;;;;15.87;100.00;101787.50;7394008;19;20979;-46
2023/05/21 08:07:40;;;;;;;23.50;9.80;;;;;;;15.96;100.00;101784.38;7396310;19;20401;-49
2023/05/21 08:10:12;;;;;;;15.33;7.83;;;;;;;16.18;100.00;101762.59;7393039;19;20454;-49
2023/05/21 08:12:42;;;;;;;13.27;8.20;;;;;;;16.35;100.00;101746.69;7396063;19;20428;-44
2023/05/21 08:15:12;;;;;;;13.70;7.90;;;;;;;16.45;100.00;101735.72;7393764;19;20509;-45
2023/05/21 08:17:42;;;;;;;21.10;10.40;;;;;;;16.39;100.00;101754.66;7398434;19;20953;-48
2023/05/21 08:20:13;;;;;;;18.00;9.97;;;;;;;16.47;100.00;101749.69;7392271;19;20439;-50
2023/05/21 08:22:43;;;;;;;18.50;10.57;;;;;;;16.53;100.00;101755.13;7398197;19;20417;-48
2023/05/21 08:25:15;;;;;;;14.53;9.13;;;;;;;16.65;100.00;101732.88;7393443;19;20527;-46
2023/05/21 08:27:44;;;;;;;18.33;9.87;;;;;;;16.72;100.00;101711.41;7395630;19;20411;-45
2023/05/21 08:30:14;;;;;;;21.30;9.80;;;;;;;16.79;100.00;101707.28;7392762;19;20542;-46
2023/05/21 08:32:44;;;;;;;14.37;9.20;;;;;;;16.73;100.00;101694.94;7395818;19;20403;-45
2023/05/21 08:35:13;;;;;;;15.73;9.93;;;;;;;16.76;100.00;101702.84;7393602;19;20451;-47
2023/05/21 08:37:43;;;;;;;19.60;9.83;;;;;;;16.88;100.00;101699.75;7395157;19;20487;-46
2023/05/21 08:40:16;;;;;;;14.20;9.40;;;;;;;17.06;100.00;101683.81;7392695;19;20874;-48
2023/05/21 08:42:47;;;;;;;18.27;9.80;;;;;;;17.16;100.00;101671.06;7395074;19;20411;-49
2023/05/21 08:45:22;;;;;;;14.70;8.90;;;;;;;17.24;100.00;101669.53;7392144;19;20451;-46
2023/05/21 08:47:58;;;;;;;15.23;9.67;;;;;;;17.22;100.00;101652.97;7395855;19;20422;-44
2023/05/21 08:50:29;;;;;;;14.83;8.57;;;;;;;17.32;100.00;101644.56;7391685;19;20475;-48
2023/05/21 08:53:00;;;;;;;18.87;11.30;;;;;;;17.32;100.00;101623.69;7395357;19;20437;-44
2023/05/21 08:55:38;;;;;;;19.20;10.13;;;;;;;17.38;100.00;101612.56;7392744;19;21054;-45
2023/05/21 08:58:07;;;;;;;14.97;8.77;;;;;;;17.37;100.00;101606.44;7395292;19;20436;-46
2023/05/21 09:00:37;;;;;;;16.60;9.57;;;;;;;17.44;100.00;101612.72;7390778;19;20447;-49
2023/05/21 09:03:11;;;;;;;13.70;8.80;;;;;;;17.52;100.00;101615.53;7395056;19;21265;-49
2023/05/21 09:05:41;;;;;;;16.33;8.80;;;;;;;17.64;100.00;101600.19;7391926;19;20475;-45
2023/05/21 09:08:16;;;;;;;15.10;9.33;;;;;;;17.66;100.00;101601.13;7395485;19;20499;-48
2023/05/21 09:10:51;;;;;;;13.43;7.97;;;;;;;17.70;100.00;101594.28;7390905;19;20521;-45
2023/05/21 09:13:22;;;;;;;27.40;15.20;;;;;;;17.60;100.00;101582.72;7393630;19;20753;-49
2023/05/21 09:15:51;;;;;;;31.20;19.17;;;;;;;17.67;100.00;101582.03;7391835;19;20445;-43
2023/05/21 09:18:21;;;;;;;24.07;14.77;;;;;;;17.70;100.00;101583.84;7393249;19;20404;-48
2023/05/21 09:20:52;;;;;;;16.13;10.03;;;;;;;17.70;100.00;101562.06;7390962;19;20467;-46
2023/05/21 09:23:22;;;;;;;27.53;15.30;;;;;;;17.81;100.00;101561.47;7392422;19;20415;-48
2023/05/21 09:25:54;;;;;;;21.07;12.20;;;;;;;17.79;100.00;101541.44;7391788;19;20798;-42
2023/05/21 09:28:24;;;;;;;31.97;16.70;;;;;;;17.94;100.00;101551.31;7392861;19;20426;-47
2023/05/21 09:30:54;;;;;;;19.80;11.33;;;;;;;17.93;100.00;101545.25;7390862;19;20543;-47
2023/05/21 09:33:28;;;;;;;27.93;16.43;;;;;;;17.97;100.00;101532.25;7393253;19;20421;-45
2023/05/21 09:35:58;;;;;;;34.37;20.03;;;;;;;17.95;100.00;101527.88;7389676;19;21010;-46
2023/05/21 09:38:28;;;;;;;17.97;11.47;;;;;;;18.06;100.00;101522.06;7393107;19;20491;-43
2023/05/21 09:41:00;;;;;;;19.27;12.70;;;;;;;18.07;100.00;101500.31;7390651;19;20455;-46
2023/05/21 09:43:30;;;;;;;21.30;12.33;;;;;;;18.14;100.00;101483.94;7393336;19;20424;-46
2023/05/21 09:46:01;;;;;;;16.77;11.90;;;;;;;18.15;100.00;101469.16;7391533;19;20444;-43
2023/05/21 09:48:38;;;;;;;20.30;11.93;;;;;;;18.04;100.00;101472.38;7394442;19;20428;-44
2023/05/21 09:51:12;;;;;;;18.10;10.87;;;;;;;17.98;100.00;101485.31;7393046;19;20520;-47
2023/05/21 09:53:46;;;;;;;19.00;10.60;;;;;;;18.16;100.00;101471.78;7390189;19;20418;-45
2023/05/21 09:56:21;;;;;;;16.70;10.70;;;;;;;18.30;100.00;101447.72;7393033;19;20475;-46
2023/05/21 09:58:53;;;;;;;22.03;11.60;;;;;;;18.38;100.00;101448.75;7390117;19;20407;-48
2023/05/21 10:01:23;;;;;;;17.80;11.47;;;;;;;18.37;100.00;101441.78;7391818;19;20551;-47
2023/05/21 10:03:57;;;;;;;15.60;10.30;;;;;;;18.47;100.00;101425.41;7390228;19;20441;-43
2023/05/21 10:06:29;;;;;;;21.70;12.57;;;;;;;18.57;100.00;101402.97;7391589;19;20440;-46
2023/05/21 10:09:01;;;;;;;20.60;12.40;;;;;;;18.63;100.00;101415.28;7390254;19;20771;-47
2023/05/21 10:11:38;;;;;;;19.37;13.33;;;;;;;18.75;100.00;101373.69;7392170;19;20452;-46
2023/05/21 10:14:08;;;;;;;21.40;13.37;;;;;;;18.78;100.00;101361.50;7390106;19;20417;-49
2023/05/21 10:16:38;;;;;;;22.83;14.50;;;;;;;18.97;100.00;101350.50;7391823;19;20800;-45
2023/05/21 10:19:09;;;;;;;17.03;11.30;;;;;;;19.03;100.00;101347.16;7389013;19;20403;-44
2023/05/21 10:21:41;;;;;;;18.90;12.40;;;;;;;19.18;100.00;101306.41;7392482;19;20411;-45
2023/05/21 10:24:11;;;;;;;20.37;11.60;;;;;;;19.42;100.00;101280.59;7389998;19;20422;-48
2023/05/21 10:26:43;;;;;;;16.50;10.60;;;;;;;19.63;100.00;101252.09;7391766;19;20416;-44
2023/05/21 10:29:13;;;;;;;14.90;9.13;;;;;;;19.90;100.00;101240.16;7389714;19;20445;-48
2023/05/21 10:31:48;;;;;;;17.93;11.03;;;;;;;20.03;100.00;101217.63;7392024;19;20418;-44
2023/05/21 10:34:18;;;;;;;24.27;12.17;;;;;;;19.92;100.00;101197.44;7389297;19;20446;-50
2023/05/21 10:36:50;;;;;;;17.00;10.23;;;;;;;20.05;100.00;101187.97;7391344;19;20400;-49
2023/05/21 10:39:21;;;;;;;17.40;11.07;;;;;;;20.06;100.00;101187.09;7389547;19;20888;-45
2023/05/21 10:42:02;;;;;;;19.17;11.67;;;;;;;20.35;100.00;101170.75;7392258;19;20415;-45
2023/05/21 10:44:38;;;;;;;45.80;30.93;;;;;;;20.31;100.00;101152.38;7388056;19;20447;-50
2023/05/21 10:47:28;;;;;;;21.50;11.80;;;;;;;20.15;100.00;101143.53;7391755;19;20825;-49
2023/05/21 10:50:10;;;;;;;19.37;11.37;;;;;;;20.02;100.00;101145.16;7388036;19;20459;-47
2023/05/21 10:52:52;;;;;;;20.30;11.40;;;;;;;20.15;100.00;101147.00;7391635;19;20488;-45
2023/05/21 10:55:34;;;;;;;23.30;14.03;;;;;;;20.24;100.00;101139.25;7387339;19;20803;-46
2023/05/21 10:58:31;;;;;;;21.77;12.87;;;;;;;20.23;100.00;101139.22;7393787;19;20428;-46
2023/05/21 11:01:01;;;;;;;18.30;10.00;;;;;;;20.23;100.00;101129.63;7387786;19;20466;-46
2023/05/21 11:03:31;;;;;;;19.60;11.30;;;;;;;20.46;100.00;101131.53;7390561;19;20441;-45
2023/05/21 11:06:07;;;;;;;14.03;9.30;;;;;;;20.56;100.00;101121.13;7391841;19;20454;-45
2023/05/21 11:08:37;;;;;;;16.43;10.73;;;;;;;20.54;100.00;101120.22;7390048;19;20793;-46
2023/05/21 11:11:07;;;;;;;18.07;11.50;;;;;;;20.76;100.00;101119.47;7390058;19;20471;-46
2023/05/21 11:13:51;;;;;;;17.40;10.10;;;;;;;20.69;100.00;101122.03;7391127;19;20804;-44
2023/05/21 11:16:26;;;;;;;20.80;10.30;;;;;;;20.50;100.00;101114.97;7390454;19;20442;-48
2023/05/21 11:19:02;;;;;;;17.17;10.30;;;;;;;20.60;100.00;101112.38;7387827;19;21020;-44
2023/05/21 11:21:33;;;;;;;16.77;9.80;;;;;;;20.82;100.00;101112.50;7389308;19;20471;-45
2023/05/21 11:24:05;;;;;;;15.37;8.83;;;;;;;20.76;100.00;101108.97;7388138;19;20419;-46
2023/05/21 11:27:06;;;;;;;16.37;9.77;;;;;;;20.88;100.00;101102.94;7392379;19;20407;-47
2023/05/21 11:29:43;;;;;;;16.13;9.70;;;;;;;20.86;100.00;101083.72;7393528;19;20455;-48